createdAt,value
2019-05-17T00:00:31.368Z,38.10
2019-05-17T00:03:01.592Z,37.50
2019-05-17T00:05:31.777Z,39.10
2019-05-17T00:08:01.971Z,38.97
2019-05-17T00:10:32.128Z,39.27
2019-05-17T00:13:02.344Z,40.07
2019-05-17T00:15:32.506Z,39.87
2019-05-17T00:18:02.675Z,39.27
2019-05-17T00:20:32.839Z,41.20
2019-05-17T00:23:03.008Z,41.43
2019-05-17T00:25:33.231Z,38.30
2019-05-17T00:28:03.511Z,40.97
2019-05-17T00:30:33.740Z,39.83
2019-05-17T00:33:04.808Z,39.10
2019-05-17T00:35:37.346Z,38.40
2019-05-17T00:38:07.055Z,38.50
2019-05-17T00:40:37.332Z,39.13
2019-05-17T00:43:07.478Z,37.97
2019-05-17T00:45:37.897Z,38.47
2019-05-17T00:48:08.170Z,38.10
2019-05-17T00:50:38.513Z,34.77
2019-05-17T00:53:08.705Z,38.63
2019-05-17T00:55:38.883Z,36.23
2019-05-17T00:58:09.012Z,34.90
2019-05-17T01:00:40.727Z,36.87
2019-05-17T01:03:10.892Z,34.77
2019-05-17T01:05:41.035Z,36.70
2019-05-17T01:08:11.195Z,36.97
2019-05-17T01:10:41.331Z,35.80
2019-05-17T01:13:11.536Z,35.70
2019-05-17T01:15:41.716Z,37.87
2019-05-17T01:18:12.843Z,35.50
2019-05-17T01:20:43.006Z,36.63
2019-05-17T01:23:13.185Z,36.27
2019-05-17T01:25:43.332Z,36.70
2019-05-17T01:28:13.494Z,35.57
2019-05-17T01:30:43.643Z,37.53
2019-05-17T01:33:13.888Z,35.33
2019-05-17T01:35:46.488Z,37.03
2019-05-17T01:38:17.682Z,37.30
2019-05-17T01:40:47.796Z,35.07
2019-05-17T01:43:17.935Z,34.97
2019-05-17T01:45:48.163Z,37.37
2019-05-17T01:48:19.437Z,34.60
2019-05-17T01:50:49.599Z,35.50
2019-05-17T01:53:19.751Z,35.10
2019-05-17T01:55:50.244Z,34.57
2019-05-17T01:58:20.407Z,35.27
2019-05-17T02:00:50.595Z,33.83
2019-05-17T02:03:20.734Z,35.93
2019-05-17T02:05:50.891Z,35.60
2019-05-17T02:08:21.085Z,34.00
2019-05-17T02:10:51.232Z,33.93
2019-05-17T02:13:21.440Z,34.73
2019-05-17T02:15:51.589Z,33.03
2019-05-17T02:18:21.757Z,34.63
2019-05-17T02:20:51.900Z,32.60
2019-05-17T02:23:22.119Z,33.60
2019-05-17T02:25:52.439Z,33.47
2019-05-17T02:28:22.616Z,33.00
2019-05-17T02:30:53.115Z,33.00
2019-05-17T02:33:23.766Z,32.30
2019-05-17T02:35:55.448Z,32.57
2019-05-17T02:38:25.742Z,33.43
2019-05-17T02:40:56.847Z,33.70
2019-05-17T02:43:27.221Z,33.27
2019-05-17T02:45:57.368Z,32.70
2019-05-17T02:48:27.538Z,33.70
2019-05-17T02:50:57.680Z,35.10
2019-05-17T02:53:27.872Z,34.50
2019-05-17T02:55:58.012Z,33.57
2019-05-17T02:58:28.249Z,34.27
2019-05-17T03:00:59.387Z,34.20
2019-05-17T03:03:32.119Z,34.10
2019-05-17T03:06:03.218Z,32.93
2019-05-17T03:08:34.416Z,35.03
2019-05-17T03:11:05.160Z,31.87
2019-05-17T03:13:35.344Z,33.23
2019-05-17T03:16:05.512Z,33.97
2019-05-17T03:18:35.664Z,33.90
2019-05-17T03:21:05.830Z,33.50
2019-05-17T03:23:36.007Z,34.63
2019-05-17T03:26:06.177Z,34.93
2019-05-17T03:28:36.351Z,35.80
2019-05-17T03:31:08.856Z,32.23
2019-05-17T03:33:38.441Z,34.20
2019-05-17T03:36:08.814Z,33.43
2019-05-17T03:38:39.051Z,33.80
2019-05-17T03:41:18.297Z,33.50
2019-05-17T03:43:44.079Z,33.67
2019-05-17T03:46:13.853Z,33.17
2019-05-17T03:48:44.444Z,35.70
2019-05-17T03:51:14.599Z,34.20
2019-05-17T03:53:44.772Z,34.20
2019-05-17T03:56:15.056Z,33.57
2019-05-17T03:58:45.202Z,34.73
2019-05-17T04:01:15.385Z,32.13
2019-05-17T04:03:45.522Z,35.67
2019-05-17T04:06:15.699Z,33.33
2019-05-17T04:08:45.864Z,33.30
2019-05-17T04:11:25.750Z,33.47
2019-05-17T04:13:47.902Z,32.17
2019-05-17T04:16:18.075Z,34.83
2019-05-17T04:18:48.243Z,32.13
2019-05-17T04:21:18.517Z,33.60
2019-05-17T04:23:48.684Z,31.23
2019-05-17T04:26:18.908Z,31.07
2019-05-17T04:28:49.133Z,30.60
2019-05-17T04:31:22.493Z,32.53
2019-05-17T04:33:53.675Z,29.90
2019-05-17T04:36:23.125Z,31.03
2019-05-17T04:38:53.323Z,31.03
2019-05-17T04:41:39.748Z,27.80
2019-05-17T04:43:55.352Z,28.50
2019-05-17T04:46:25.518Z,31.13
2019-05-17T04:48:55.676Z,27.97
2019-05-17T04:51:25.847Z,30.20
2019-05-17T04:53:56.055Z,31.40
2019-05-17T04:56:26.231Z,30.57
2019-05-17T04:58:56.401Z,28.10
2019-05-17T05:01:26.612Z,29.20
2019-05-17T05:03:56.782Z,28.60
2019-05-17T05:06:26.950Z,25.43
2019-05-17T05:08:57.140Z,27.43
2019-05-17T05:11:27.338Z,27.57
2019-05-17T05:13:57.529Z,27.07
2019-05-17T05:16:27.676Z,27.20
2019-05-17T05:21:47.090Z,25.00
2019-05-17T05:24:17.227Z,25.23
2019-05-17T05:26:47.367Z,25.90
2019-05-17T05:29:17.531Z,26.43
2019-05-17T05:31:47.691Z,25.13
2019-05-17T05:34:17.815Z,24.53
2019-05-17T05:36:48.015Z,24.67
2019-05-17T05:39:18.160Z,25.80
2019-05-17T05:41:48.334Z,26.87
2019-05-17T05:44:18.476Z,23.20
2019-05-17T05:46:48.648Z,22.40
2019-05-17T05:49:18.804Z,23.10
2019-05-17T05:51:52.230Z,24.27
2019-05-17T05:54:22.550Z,24.53
2019-05-17T05:56:52.916Z,23.70
2019-05-17T05:59:23.081Z,23.00
2019-05-17T06:01:53.226Z,24.43
2019-05-17T06:04:23.433Z,22.47
2019-05-17T06:06:53.645Z,23.00
2019-05-17T06:09:25.300Z,23.40
2019-05-17T06:11:55.448Z,22.47
2019-05-17T06:14:25.614Z,21.47
2019-05-17T06:16:55.776Z,19.93
2019-05-17T06:19:25.963Z,18.43
2019-05-17T06:21:56.122Z,19.77
2019-05-17T06:24:26.287Z,18.23
2019-05-17T06:26:56.448Z,19.43
2019-05-17T06:29:26.647Z,17.80
2019-05-17T06:31:56.835Z,17.43
2019-05-17T06:34:27.003Z,16.40
2019-05-17T06:36:57.143Z,18.80
2019-05-17T06:39:27.464Z,16.53
2019-05-17T06:41:57.636Z,17.53
2019-05-17T06:44:27.782Z,17.27
2019-05-17T06:46:57.977Z,17.53
2019-05-17T06:49:28.125Z,15.67
2019-05-17T06:51:58.307Z,16.93
2019-05-17T06:54:28.447Z,16.00
2019-05-17T06:56:58.619Z,17.90
2019-05-17T06:59:28.772Z,16.93
2019-05-17T07:01:59.763Z,17.37
2019-05-17T07:04:30.093Z,16.77
2019-05-17T07:07:20.551Z,15.63
2019-05-17T07:09:50.008Z,15.50
2019-05-17T07:12:20.413Z,14.67
2019-05-17T07:14:50.833Z,14.93
2019-05-17T07:17:22.205Z,14.10
2019-05-17T07:19:52.419Z,14.90
2019-05-17T07:22:22.587Z,16.10
2019-05-17T07:24:52.751Z,15.53
2019-05-17T07:27:22.912Z,15.30
2019-05-17T07:29:53.120Z,16.40
2019-05-17T07:32:23.307Z,13.90
2019-05-17T07:34:53.531Z,13.23
2019-05-17T07:37:23.681Z,13.30
2019-05-17T07:40:01.141Z,12.90
2019-05-17T07:42:25.752Z,12.77
2019-05-17T07:44:55.958Z,13.53
2019-05-17T07:47:26.101Z,12.70
2019-05-17T07:49:56.278Z,11.63
2019-05-17T07:52:26.479Z,11.77
2019-05-17T07:54:56.675Z,11.90
2019-05-17T07:57:29.955Z,11.77
2019-05-17T08:00:00.147Z,11.87
2019-05-17T08:02:30.831Z,11.57
2019-05-17T08:05:01.118Z,11.60
2019-05-17T08:07:31.392Z,11.07
2019-05-17T08:10:01.597Z,9.50
2019-05-17T08:12:32.928Z,11.00
2019-05-17T08:15:03.107Z,11.00
2019-05-17T08:17:33.359Z,9.23
2019-05-17T08:20:03.588Z,9.73
2019-05-17T08:22:33.855Z,10.70
2019-05-17T08:25:04.244Z,10.27
2019-05-17T08:27:35.877Z,10.20
2019-05-17T08:30:06.467Z,9.83
2019-05-17T08:32:39.745Z,10.40
2019-05-17T08:35:11.371Z,9.67
2019-05-17T08:37:42.271Z,9.20
2019-05-17T08:40:15.366Z,9.33
2019-05-17T08:42:45.692Z,8.43
2019-05-17T08:45:15.958Z,9.40
2019-05-17T08:47:46.148Z,9.20
2019-05-17T08:50:16.578Z,8.73
2019-05-17T08:52:46.755Z,9.20
2019-05-17T08:55:17.103Z,9.00
2019-05-17T08:57:49.839Z,8.10
2019-05-17T09:00:20.707Z,7.90
2019-05-17T09:02:51.082Z,8.07
2019-05-17T09:05:21.491Z,7.67
2019-05-17T09:07:52.740Z,7.87
2019-05-17T09:10:23.987Z,7.20
2019-05-17T09:12:54.236Z,6.30
2019-05-17T09:15:24.455Z,6.17
2019-05-17T09:17:54.620Z,6.80
2019-05-17T09:20:25.834Z,5.77
2019-05-17T09:22:56.504Z,5.83
2019-05-17T09:25:26.668Z,5.43
2019-05-17T09:27:56.851Z,6.53
2019-05-17T09:30:31.167Z,5.83
2019-05-17T09:33:00.409Z,6.20
2019-05-17T09:35:30.737Z,6.50
2019-05-17T09:38:00.880Z,6.50
2019-05-17T09:40:31.096Z,6.60
2019-05-17T09:43:01.254Z,6.63
2019-05-17T09:45:31.432Z,6.20
2019-05-17T09:48:01.606Z,6.90
2019-05-17T09:50:31.849Z,6.10
2019-05-17T09:53:02.008Z,5.50
2019-05-17T09:55:32.269Z,4.87
2019-05-17T09:58:02.432Z,5.37
2019-05-17T10:00:33.496Z,4.30
2019-05-17T10:03:03.699Z,4.40
2019-05-17T10:05:33.851Z,5.07
2019-05-17T10:08:04.027Z,4.23
2019-05-17T10:10:34.194Z,4.50
2019-05-17T10:13:04.367Z,5.10
2019-05-17T10:15:34.527Z,4.57
2019-05-17T10:18:04.711Z,4.70
2019-05-17T10:20:35.960Z,5.33
2019-05-17T10:23:06.116Z,6.13
2019-05-17T10:25:37.236Z,5.93
2019-05-17T10:28:09.788Z,6.00
2019-05-17T10:30:39.790Z,5.13
2019-05-17T10:33:10.496Z,5.60
2019-05-17T10:35:40.987Z,4.90
2019-05-17T10:38:11.311Z,5.47
2019-05-17T10:40:41.454Z,5.03
2019-05-17T10:43:11.595Z,5.50
2019-05-17T10:45:41.753Z,5.00
2019-05-17T10:48:13.535Z,4.63
2019-05-17T10:50:43.968Z,4.97
2019-05-17T10:53:14.131Z,5.20
2019-05-17T10:55:44.275Z,5.03
2019-05-17T10:58:14.451Z,5.97
2019-05-17T11:00:44.612Z,6.40
2019-05-17T11:03:16.399Z,6.03
2019-05-17T11:05:46.699Z,5.67
2019-05-17T11:08:16.838Z,5.13
2019-05-17T11:10:47.020Z,6.47
2019-05-17T11:13:17.152Z,5.13
2019-05-17T11:15:47.335Z,4.33
2019-05-17T11:18:17.583Z,4.33
2019-05-17T11:20:47.760Z,4.17
2019-05-17T11:23:17.910Z,4.50
2019-05-17T11:25:48.098Z,4.10
2019-05-17T11:28:18.321Z,4.07
2019-05-17T11:30:48.499Z,4.20
2019-05-17T11:33:18.671Z,4.20
2019-05-17T11:35:48.828Z,5.00
2019-05-17T11:38:26.706Z,5.00
2019-05-17T11:40:56.875Z,4.70
2019-05-17T11:43:27.039Z,5.07
2019-05-17T11:45:57.232Z,4.50
2019-05-17T11:48:27.426Z,4.57
2019-05-17T11:50:57.676Z,4.47
2019-05-17T11:53:27.824Z,5.50
2019-05-17T11:55:58.097Z,4.60
2019-05-17T11:58:28.265Z,4.33
2019-05-17T12:00:58.440Z,5.07
2019-05-17T12:03:28.626Z,4.90
2019-05-17T12:05:58.786Z,4.63
2019-05-17T12:08:28.953Z,5.43
2019-05-17T12:10:59.185Z,5.30
2019-05-17T12:13:29.798Z,5.77
2019-05-17T12:15:59.988Z,5.00
2019-05-17T12:18:30.148Z,5.37
2019-05-17T12:21:00.320Z,5.83
2019-05-17T12:23:31.628Z,5.37
2019-05-17T12:26:01.839Z,5.80
2019-05-17T12:28:32.008Z,6.03
2019-05-17T12:31:02.290Z,5.37
2019-05-17T12:33:32.536Z,5.77
2019-05-17T12:36:02.762Z,5.50
2019-05-17T12:38:33.219Z,5.77
2019-05-17T12:41:03.615Z,6.53
2019-05-17T12:43:33.793Z,5.67
2019-05-17T12:46:03.976Z,6.40
2019-05-17T12:48:34.135Z,6.67
2019-05-17T12:51:04.382Z,6.97
2019-05-17T12:53:34.583Z,6.73
2019-05-17T12:56:04.876Z,7.60
2019-05-17T12:58:35.105Z,7.60
2019-05-17T13:01:05.339Z,7.73
2019-05-17T13:03:35.530Z,7.47
2019-05-17T13:06:05.685Z,7.47
2019-05-17T13:08:35.878Z,7.40
2019-05-17T13:11:06.106Z,8.63
2019-05-17T13:13:36.300Z,8.30
2019-05-17T13:16:17.389Z,7.80
2019-05-17T13:18:38.464Z,7.60
2019-05-17T13:21:08.656Z,7.30
2019-05-17T13:23:38.868Z,7.63
2019-05-17T13:26:09.021Z,7.03
2019-05-17T13:28:39.198Z,7.70
2019-05-17T13:31:09.371Z,7.93
2019-05-17T13:33:39.568Z,7.90
2019-05-17T13:36:10.823Z,7.73
2019-05-17T13:38:41.127Z,7.50
2019-05-17T13:41:11.417Z,8.33
2019-05-17T13:43:41.807Z,8.27
2019-05-17T13:46:12.104Z,7.93
2019-05-17T13:48:42.527Z,7.47
2019-05-17T13:51:12.671Z,7.33
2019-05-17T13:53:42.915Z,7.73
2019-05-17T13:56:13.155Z,7.50
2019-05-17T13:58:43.442Z,9.00
2019-05-17T14:01:13.621Z,7.90
2019-05-17T14:03:43.817Z,7.37
2019-05-17T14:06:13.984Z,7.50
2019-05-17T14:08:44.145Z,8.43
2019-05-17T14:11:15.860Z,7.30
2019-05-17T14:13:45.991Z,7.97
2019-05-17T14:16:16.219Z,7.40
2019-05-17T14:18:46.461Z,8.20
2019-05-17T14:21:16.643Z,9.47
2019-05-17T14:23:46.944Z,8.43
2019-05-17T14:26:17.218Z,9.10
2019-05-17T14:28:47.411Z,8.93
2019-05-17T14:31:17.583Z,9.57
2019-05-17T14:33:47.812Z,10.07
2019-05-17T14:36:18.078Z,10.33
2019-05-17T14:38:49.499Z,9.60
2019-05-17T14:41:19.647Z,9.87
2019-05-17T14:43:49.854Z,11.43
2019-05-17T14:46:20.023Z,11.60
2019-05-17T14:48:50.239Z,10.07
2019-05-17T14:51:20.506Z,10.53
2019-05-17T14:53:50.931Z,9.77
2019-05-17T14:56:21.324Z,9.77
2019-05-17T14:58:51.499Z,10.53
2019-05-17T15:01:21.691Z,9.80
2019-05-17T15:03:51.835Z,9.73
2019-05-17T15:06:22.022Z,10.50
2019-05-17T15:08:52.238Z,9.30
2019-05-17T15:11:22.485Z,10.57
2019-05-17T15:13:52.728Z,10.20
2019-05-17T15:16:23.016Z,10.10
2019-05-17T15:18:53.212Z,10.80
2019-05-17T15:21:23.412Z,10.70
2019-05-17T15:23:53.607Z,11.47
2019-05-17T15:26:23.800Z,11.37
2019-05-17T15:28:53.956Z,12.63
2019-05-17T15:31:24.167Z,12.07
2019-05-17T15:33:54.391Z,12.67
2019-05-17T15:36:24.604Z,11.43
2019-05-17T15:38:54.900Z,11.13
2019-05-17T15:41:25.072Z,11.50
2019-05-17T15:43:55.283Z,10.63
2019-05-17T15:46:25.687Z,12.10
2019-05-17T15:48:55.863Z,10.23
2019-05-17T15:51:26.051Z,11.97
2019-05-17T15:53:56.236Z,11.90
2019-05-17T15:56:26.418Z,11.03
2019-05-17T15:58:56.653Z,12.53
2019-05-17T16:01:26.821Z,12.53
2019-05-17T16:03:57.001Z,11.80
2019-05-17T16:06:27.181Z,11.53
2019-05-17T16:08:57.344Z,12.87
2019-05-17T16:11:27.524Z,12.77
2019-05-17T16:13:57.713Z,13.47
2019-05-17T16:16:27.880Z,13.13
2019-05-17T16:18:58.065Z,13.27
2019-05-17T16:21:28.491Z,14.17
2019-05-17T16:23:58.708Z,15.60
2019-05-17T16:26:28.864Z,13.50
2019-05-17T16:28:59.056Z,14.20
2019-05-17T16:31:29.233Z,14.70
2019-05-17T16:33:59.450Z,15.57
2019-05-17T16:36:29.652Z,14.83
2019-05-17T16:38:59.991Z,14.03
2019-05-17T16:41:30.169Z,13.50
2019-05-17T16:44:00.392Z,13.50
2019-05-17T16:46:30.591Z,13.90
2019-05-17T16:49:00.839Z,13.40
2019-05-17T16:51:31.022Z,13.90
2019-05-17T16:54:01.195Z,13.30
2019-05-17T16:56:31.430Z,13.20
2019-05-17T16:59:01.812Z,14.00
2019-05-17T17:01:33.120Z,12.47
2019-05-17T17:04:03.315Z,14.00
2019-05-17T17:06:33.611Z,13.00
2019-05-17T17:09:04.604Z,13.03
2019-05-17T17:11:34.846Z,13.00
2019-05-17T17:14:05.437Z,12.90
2019-05-17T17:16:35.696Z,13.17
2019-05-17T17:19:06.119Z,12.67
2019-05-17T17:21:36.477Z,12.00
2019-05-17T17:24:06.884Z,12.60
2019-05-17T17:26:37.060Z,10.40
2019-05-17T17:29:07.309Z,11.63
2019-05-17T17:31:37.454Z,12.70
2019-05-17T17:34:07.780Z,12.20
2019-05-17T17:36:37.971Z,13.00
2019-05-17T17:39:08.377Z,12.60
2019-05-17T17:41:38.583Z,12.63
2019-05-17T17:44:08.875Z,12.10
2019-05-17T17:46:39.131Z,11.97
2019-05-17T17:49:09.370Z,12.70
2019-05-17T17:51:39.572Z,11.40
2019-05-17T17:54:09.901Z,14.23
2019-05-17T17:56:40.052Z,12.83
2019-05-17T17:59:10.261Z,13.50
2019-05-17T18:01:40.446Z,14.13
2019-05-17T18:04:10.784Z,14.40
2019-05-17T18:06:40.972Z,15.87
2019-05-17T18:09:11.175Z,18.63
2019-05-17T18:11:41.509Z,18.17
2019-05-17T18:14:13.740Z,17.60
2019-05-17T18:16:43.599Z,18.57
2019-05-17T18:19:13.823Z,18.70
2019-05-17T18:21:44.020Z,20.17
2019-05-17T18:24:14.362Z,21.03
2019-05-17T18:26:44.655Z,21.43
2019-05-17T18:29:15.153Z,21.30
2019-05-17T18:31:45.432Z,23.40
2019-05-17T18:34:15.655Z,23.90
2019-05-17T18:36:46.063Z,23.50
2019-05-17T18:39:16.379Z,22.23
2019-05-17T18:41:46.730Z,22.60
2019-05-17T18:44:27.252Z,21.13
2019-05-17T18:46:48.976Z,20.67
2019-05-17T18:49:19.435Z,19.70
2019-05-17T18:51:49.920Z,19.60
2019-05-17T18:54:21.145Z,19.73
2019-05-17T18:56:51.311Z,18.77
2019-05-17T18:59:21.525Z,18.87
2019-05-17T19:01:51.832Z,19.33
2019-05-17T19:04:22.192Z,17.77
2019-05-17T19:06:52.493Z,18.23
2019-05-17T19:09:23.759Z,17.60
2019-05-17T19:11:54.057Z,17.87
2019-05-17T19:14:24.466Z,16.97
2019-05-17T19:16:54.705Z,17.63
2019-05-17T19:19:26.265Z,18.20
2019-05-17T19:21:57.572Z,18.23
2019-05-17T19:24:27.824Z,17.27
2019-05-17T19:26:58.168Z,18.40
2019-05-17T19:29:31.418Z,18.33
2019-05-17T19:32:01.670Z,17.60
2019-05-17T19:34:32.120Z,18.60
2019-05-17T19:37:02.311Z,18.37
2019-05-17T19:39:32.655Z,19.53
2019-05-17T19:42:02.927Z,18.57
2019-05-17T19:44:33.293Z,18.07
2019-05-17T19:47:03.507Z,18.87
2019-05-17T19:49:33.679Z,17.47
2019-05-17T19:52:03.968Z,18.00
2019-05-17T19:54:34.240Z,16.40
2019-05-17T19:57:04.692Z,20.00
2019-05-17T19:59:36.042Z,19.23
2019-05-17T20:02:06.731Z,19.60
2019-05-17T20:04:37.220Z,20.33
2019-05-17T20:07:07.506Z,22.07
2019-05-17T20:09:37.780Z,23.93
2019-05-17T20:12:07.934Z,23.77
2019-05-17T20:14:38.123Z,22.20
2019-05-17T20:17:08.288Z,21.33
2019-05-17T20:19:38.495Z,20.73
2019-05-17T20:22:08.689Z,19.30
2019-05-17T20:24:38.970Z,20.37
2019-05-17T20:27:09.147Z,19.27
2019-05-17T20:29:39.345Z,19.80
2019-05-17T20:32:09.531Z,20.57
2019-05-17T20:34:39.747Z,20.67
2019-05-17T20:37:10.004Z,19.30
2019-05-17T20:39:41.423Z,20.27
2019-05-17T20:42:11.764Z,19.83
2019-05-17T20:44:42.060Z,19.87
2019-05-17T20:47:12.242Z,21.70
2019-05-17T20:49:42.541Z,20.23
2019-05-17T20:52:12.732Z,19.83
2019-05-17T20:54:43.112Z,19.07
2019-05-17T20:57:13.415Z,18.83
2019-05-17T20:59:43.789Z,19.40
2019-05-17T21:02:13.978Z,19.23
2019-05-17T21:04:44.256Z,19.50
2019-05-17T21:07:14.526Z,19.00
2019-05-17T21:09:44.792Z,19.77
2019-05-17T21:12:14.964Z,21.03
2019-05-17T21:14:45.328Z,20.33
2019-05-17T21:17:15.607Z,20.30
2019-05-17T21:19:45.821Z,19.83
2019-05-17T21:22:16.016Z,19.53
2019-05-17T21:24:49.009Z,19.23
2019-05-17T21:27:19.208Z,19.73
2019-05-17T21:29:49.995Z,20.57
2019-05-17T21:32:20.180Z,19.17
2019-05-17T21:34:50.359Z,19.67
2019-05-17T21:37:20.552Z,21.50
2019-05-17T21:39:50.862Z,21.10
2019-05-17T21:42:21.022Z,22.47
2019-05-17T21:44:52.680Z,21.00
2019-05-17T21:47:22.934Z,20.90
2019-05-17T21:49:53.106Z,21.70
2019-05-17T21:52:23.259Z,22.37
2019-05-17T21:54:53.560Z,22.20
2019-05-17T21:57:23.708Z,22.60
2019-05-17T21:59:53.905Z,20.13
2019-05-17T22:02:24.144Z,23.47
2019-05-17T22:04:54.304Z,23.67
2019-05-17T22:07:24.590Z,23.50
2019-05-17T22:09:54.788Z,21.97
2019-05-17T22:12:25.947Z,23.50
2019-05-17T22:14:57.131Z,22.93
2019-05-17T22:17:27.400Z,23.30
2019-05-17T22:19:57.587Z,24.70
2019-05-17T22:22:27.875Z,21.27
2019-05-17T22:24:58.089Z,23.20
2019-05-17T22:27:28.265Z,21.50
2019-05-17T22:29:58.468Z,22.57
2019-05-17T22:32:28.679Z,23.10
2019-05-17T22:34:58.863Z,22.87
2019-05-17T22:37:29.091Z,24.13
2019-05-17T22:39:59.263Z,24.27
2019-05-17T22:42:29.411Z,23.10
2019-05-17T22:44:59.616Z,24.33
2019-05-17T22:47:29.932Z,22.07
2019-05-17T22:50:00.094Z,23.30
2019-05-17T22:52:30.308Z,25.90
2019-05-17T22:55:00.520Z,26.47
2019-05-17T22:57:30.731Z,23.60
2019-05-17T23:00:00.938Z,25.70
2019-05-17T23:02:32.777Z,26.40
2019-05-17T23:05:02.967Z,24.50
2019-05-17T23:07:34.296Z,25.23
2019-05-17T23:10:04.950Z,26.27
2019-05-17T23:12:35.092Z,26.33
2019-05-17T23:15:05.454Z,25.47
2019-05-17T23:17:35.656Z,25.50
2019-05-17T23:20:06.075Z,28.57
2019-05-17T23:22:36.251Z,26.40
2019-05-17T23:25:06.742Z,27.20
2019-05-17T23:27:36.884Z,23.77
2019-05-17T23:30:07.543Z,21.60
2019-05-17T23:32:37.726Z,21.77
2019-05-17T23:35:08.396Z,24.60
2019-05-17T23:37:38.627Z,24.63
2019-05-17T23:40:09.676Z,24.00
2019-05-17T23:42:39.864Z,19.73
2019-05-17T23:45:10.136Z,25.43
2019-05-17T23:47:40.391Z,16.47
2019-05-17T23:50:10.559Z,20.30
2019-05-17T23:52:40.808Z,17.93
2019-05-17T23:55:10.986Z,19.27
2019-05-17T23:57:41.233Z,19.80
